createdAt,value
2022-09-11T00:12:44.137Z,16.7
2022-09-11T00:27:13.887Z,16.7
2022-09-11T00:41:43.391Z,16.7
2022-09-11T00:56:13.373Z,16.8
2022-09-11T01:10:43.237Z,16.6
2022-09-11T01:25:13.684Z,16.7
2022-09-11T01:39:42.452Z,16.5
2022-09-11T01:54:12.184Z,16.5
2022-09-11T02:08:41.790Z,16.7
2022-09-11T02:23:11.529Z,16.6
2022-09-11T02:37:40.592Z,16.8
2022-09-11T02:52:10.613Z,16.8
2022-09-11T03:06:40.692Z,16.9
2022-09-11T03:21:09.117Z,16.8
2022-09-11T03:35:38.543Z,16.6
2022-09-11T03:50:07.715Z,16.7
2022-09-11T04:04:37.250Z,16.9
2022-09-11T04:19:07.304Z,16.7
2022-09-11T04:33:36.793Z,16.8
2022-09-11T04:48:05.178Z,16.9
2022-09-11T05:02:34.938Z,16.9
2022-09-11T05:17:04.259Z,17
2022-09-11T05:31:32.546Z,16.9
2022-09-11T05:46:01.387Z,17.1
2022-09-11T06:00:30.173Z,17.1
2022-09-11T06:15:00.081Z,17.4
2022-09-11T06:29:29.360Z,17.1
2022-09-11T06:43:59.052Z,17.4
2022-09-11T06:58:28.696Z,17.6
2022-09-11T07:13:03.432Z,17.9
2022-09-11T07:27:33.218Z,18.8
2022-09-11T07:42:01.436Z,18.7
2022-09-11T07:56:28.318Z,19
2022-09-11T08:10:59.231Z,19.7
2022-09-11T08:25:32.966Z,20.7
2022-09-11T08:39:58.110Z,19.8
2022-09-11T08:54:23.901Z,19.1
2022-09-11T09:08:55.967Z,20.5
2022-09-11T09:23:25.862Z,19.2
2022-09-11T09:37:51.395Z,18.8
2022-09-11T09:52:21.446Z,19.3
2022-09-11T10:06:55.607Z,19.9
2022-09-11T10:21:21.003Z,19.6
2022-09-11T10:35:46.698Z,19.7
2022-09-11T10:50:16.728Z,19.9
2022-09-11T11:04:45.276Z,20.8
2022-09-11T11:19:15.240Z,20
2022-09-11T11:33:44.278Z,20.8
2022-09-11T11:48:13.342Z,20.5
2022-09-11T12:02:42.389Z,21.1
2022-09-11T12:17:09.453Z,20.2
2022-09-11T12:31:40.613Z,20.8
2022-09-11T12:46:09.180Z,21.2
2022-09-11T13:00:39.615Z,20.8
2022-09-11T13:15:08.004Z,21.4
2022-09-11T13:29:35.615Z,20.9
2022-09-11T13:44:06.780Z,21.8
2022-09-11T13:58:33.533Z,21.1
2022-09-11T14:13:01.270Z,20.8
2022-09-11T14:27:29.995Z,20.6
2022-09-11T14:42:03.336Z,20.6
2022-09-11T14:56:33.442Z,21.2
2022-09-11T15:11:03.482Z,21.3
2022-09-11T15:25:35.177Z,21.6
2022-09-11T15:40:00.828Z,21.3
2022-09-11T15:54:28.556Z,21.3
2022-09-11T16:08:57.998Z,21.3
2022-09-11T16:23:26.990Z,21.3
2022-09-11T16:37:55.539Z,21.2
2022-09-11T16:52:24.716Z,21.1
2022-09-11T17:06:51.970Z,20.8
2022-09-11T17:21:20.664Z,20.7
2022-09-11T17:35:48.725Z,20.3
2022-09-11T17:50:15.057Z,19.8
2022-09-11T18:04:40.059Z,19.3
2022-09-11T18:19:08.193Z,18.9
2022-09-11T18:33:37.497Z,18.4
2022-09-11T18:48:06.404Z,17.8
2022-09-11T19:02:34.868Z,18.1
2022-09-11T19:17:02.973Z,17.9
2022-09-11T19:31:30.700Z,17.7
2022-09-11T19:46:00.335Z,17.2
2022-09-11T20:00:26.730Z,17
2022-09-11T20:14:53.990Z,16.7
2022-09-11T20:29:28.175Z,16.7
2022-09-11T20:44:00.486Z,16.6
2022-09-11T20:58:24.841Z,16.6
2022-09-11T21:12:53.397Z,16.2
2022-09-11T21:27:22.316Z,15.8
2022-09-11T21:41:53.338Z,15.8
2022-09-11T21:56:18.200Z,15.7
2022-09-11T22:10:48.819Z,15.8
2022-09-11T22:25:19.091Z,15.6
2022-09-11T22:39:48.003Z,15.2
2022-09-11T22:54:16.981Z,15.3
2022-09-11T23:08:44.584Z,15.1
2022-09-11T23:23:13.874Z,14.5
2022-09-11T23:37:45.386Z,14.8
2022-09-11T23:52:12.009Z,14.5
